sensor_id;sensor_type;location;lat;lon;timestamp;P1;durP1;ratioP1;P2;durP2;ratioP2
81211;SDS011;70686;52.494;13.420;2023-07-31T00:01:25;6.28;;;2.47;;
81211;SDS011;70686;52.494;13.420;2023-07-31T00:03:51;3.63;;;2.50;;
81211;SDS011;70686;52.494;13.420;2023-07-31T00:06:17;5.25;;;2.60;;
81211;SDS011;70686;52.494;13.420;2023-07-31T00:08:43;3.97;;;2.60;;
81211;SDS011;70686;52.494;13.420;2023-07-31T00:11:09;4.68;;;2.70;;
81211;SDS011;70686;52.494;13.420;2023-07-31T00:13:35;5.85;;;2.58;;
81211;SDS011;70686;52.494;13.420;2023-07-31T00:16:01;4.88;;;2.65;;
81211;SDS011;70686;52.494;13.420;2023-07-31T00:18:27;3.20;;;2.63;;
81211;SDS011;70686;52.494;13.420;2023-07-31T00:20:53;5.88;;;2.80;;
81211;SDS011;70686;52.494;13.420;2023-07-31T00:23:19;4.78;;;2.80;;
81211;SDS011;70686;52.494;13.420;2023-07-31T00:25:45;6.15;;;2.88;;
81211;SDS011;70686;52.494;13.420;2023-07-31T00:28:11;4.65;;;2.55;;
81211;SDS011;70686;52.494;13.420;2023-07-31T00:30:37;7.18;;;2.90;;
81211;SDS011;70686;52.494;13.420;2023-07-31T00:33:03;6.32;;;2.60;;
81211;SDS011;70686;52.494;13.420;2023-07-31T00:35:29;3.55;;;2.72;;
81211;SDS011;70686;52.494;13.420;2023-07-31T00:37:56;6.43;;;2.80;;
81211;SDS011;70686;52.494;13.420;2023-07-31T00:40:22;5.13;;;2.42;;
81211;SDS011;70686;52.494;13.420;2023-07-31T00:42:48;5.80;;;2.78;;
81211;SDS011;70686;52.494;13.420;2023-07-31T00:45:14;4.68;;;2.60;;
81211;SDS011;70686;52.494;13.420;2023-07-31T00:47:40;6.97;;;2.92;;
81211;SDS011;70686;52.494;13.420;2023-07-31T00:50:06;3.75;;;2.75;;
81211;SDS011;70686;52.494;13.420;2023-07-31T00:52:32;2.83;;;2.53;;
81211;SDS011;70686;52.494;13.420;2023-07-31T00:54:58;5.82;;;3.58;;
81211;SDS011;70686;52.494;13.420;2023-07-31T00:57:25;4.18;;;3.00;;
81211;SDS011;70686;52.494;13.420;2023-07-31T00:59:51;6.95;;;2.90;;
81211;SDS011;70686;52.494;13.420;2023-07-31T01:02:17;4.90;;;3.15;;
81211;SDS011;70686;52.494;13.420;2023-07-31T01:04:43;5.35;;;3.00;;
81211;SDS011;70686;52.494;13.420;2023-07-31T01:12:50;6.07;;;2.92;;
81211;SDS011;70686;52.494;13.420;2023-07-31T01:15:16;3.33;;;2.63;;
81211;SDS011;70686;52.494;13.420;2023-07-31T01:17:43;6.90;;;3.25;;
81211;SDS011;70686;52.494;13.420;2023-07-31T01:20:13;5.35;;;3.30;;
81211;SDS011;70686;52.494;13.420;2023-07-31T01:27:59;9.13;;;5.22;;
81211;SDS011;70686;52.494;13.420;2023-07-31T01:30:26;8.65;;;4.63;;
81211;SDS011;70686;52.494;13.420;2023-07-31T01:32:53;5.47;;;3.25;;
81211;SDS011;70686;52.494;13.420;2023-07-31T01:35:20;8.43;;;3.88;;
81211;SDS011;70686;52.494;13.420;2023-07-31T01:37:46;5.93;;;3.80;;
81211;SDS011;70686;52.494;13.420;2023-07-31T01:40:12;5.68;;;3.60;;
81211;SDS011;70686;52.494;13.420;2023-07-31T01:42:38;8.88;;;5.07;;
81211;SDS011;70686;52.494;13.420;2023-07-31T01:45:04;4.28;;;3.35;;
81211;SDS011;70686;52.494;13.420;2023-07-31T01:47:30;5.32;;;3.58;;
81211;SDS011;70686;52.494;13.420;2023-07-31T01:49:56;4.78;;;3.10;;
81211;SDS011;70686;52.494;13.420;2023-07-31T01:52:22;5.60;;;3.15;;
81211;SDS011;70686;52.494;13.420;2023-07-31T01:54:48;6.50;;;3.80;;
81211;SDS011;70686;52.494;13.420;2023-07-31T01:57:14;5.30;;;3.67;;
81211;SDS011;70686;52.494;13.420;2023-07-31T01:59:40;5.40;;;3.13;;
81211;SDS011;70686;52.494;13.420;2023-07-31T02:02:06;5.43;;;3.38;;
81211;SDS011;70686;52.494;13.420;2023-07-31T02:04:32;5.55;;;3.17;;
81211;SDS011;70686;52.494;13.420;2023-07-31T02:06:59;4.70;;;3.35;;
81211;SDS011;70686;52.494;13.420;2023-07-31T02:09:25;4.72;;;2.85;;
81211;SDS011;70686;52.494;13.420;2023-07-31T02:11:51;6.50;;;3.40;;
81211;SDS011;70686;52.494;13.420;2023-07-31T02:14:17;6.25;;;3.25;;
81211;SDS011;70686;52.494;13.420;2023-07-31T02:16:43;4.28;;;3.00;;
81211;SDS011;70686;52.494;13.420;2023-07-31T02:19:09;5.32;;;3.08;;
81211;SDS011;70686;52.494;13.420;2023-07-31T02:21:35;4.72;;;3.30;;
81211;SDS011;70686;52.494;13.420;2023-07-31T02:24:01;4.13;;;3.28;;
81211;SDS011;70686;52.494;13.420;2023-07-31T02:26:27;6.50;;;3.30;;
81211;SDS011;70686;52.494;13.420;2023-07-31T02:28:53;7.22;;;3.28;;
81211;SDS011;70686;52.494;13.420;2023-07-31T02:31:19;3.75;;;3.05;;
81211;SDS011;70686;52.494;13.420;2023-07-31T02:33:45;4.35;;;3.10;;
81211;SDS011;70686;52.494;13.420;2023-07-31T02:36:10;5.45;;;3.28;;
81211;SDS011;70686;52.494;13.420;2023-07-31T02:38:36;4.07;;;3.17;;
81211;SDS011;70686;52.494;13.420;2023-07-31T02:41:02;6.65;;;3.33;;
81211;SDS011;70686;52.494;13.420;2023-07-31T02:43:28;7.72;;;3.22;;
81211;SDS011;70686;52.494;13.420;2023-07-31T02:45:54;6.60;;;3.30;;
81211;SDS011;70686;52.494;13.420;2023-07-31T02:48:20;6.63;;;3.50;;
81211;SDS011;70686;52.494;13.420;2023-07-31T02:50:47;6.10;;;3.60;;
81211;SDS011;70686;52.494;13.420;2023-07-31T02:53:13;7.03;;;3.53;;
81211;SDS011;70686;52.494;13.420;2023-07-31T02:55:39;6.57;;;4.03;;
81211;SDS011;70686;52.494;13.420;2023-07-31T02:58:05;7.35;;;3.45;;
81211;SDS011;70686;52.494;13.420;2023-07-31T03:00:31;5.90;;;3.28;;
81211;SDS011;70686;52.494;13.420;2023-07-31T03:02:57;8.57;;;3.90;;
81211;SDS011;70686;52.494;13.420;2023-07-31T03:05:23;6.75;;;4.13;;
81211;SDS011;70686;52.494;13.420;2023-07-31T03:07:49;7.05;;;3.85;;
81211;SDS011;70686;52.494;13.420;2023-07-31T03:10:15;6.55;;;3.67;;
81211;SDS011;70686;52.494;13.420;2023-07-31T03:12:41;9.27;;;4.45;;
81211;SDS011;70686;52.494;13.420;2023-07-31T03:15:07;6.85;;;4.57;;
81211;SDS011;70686;52.494;13.420;2023-07-31T03:17:33;8.27;;;3.95;;
81211;SDS011;70686;52.494;13.420;2023-07-31T03:19:59;6.63;;;4.43;;
81211;SDS011;70686;52.494;13.420;2023-07-31T03:22:25;8.20;;;5.00;;
81211;SDS011;70686;52.494;13.420;2023-07-31T03:24:51;7.53;;;4.38;;
81211;SDS011;70686;52.494;13.420;2023-07-31T03:27:18;8.02;;;4.70;;
81211;SDS011;70686;52.494;13.420;2023-07-31T03:29:44;8.02;;;4.68;;
81211;SDS011;70686;52.494;13.420;2023-07-31T03:32:10;6.07;;;4.35;;
81211;SDS011;70686;52.494;13.420;2023-07-31T03:34:36;7.47;;;4.50;;
81211;SDS011;70686;52.494;13.420;2023-07-31T03:37:02;5.43;;;3.97;;
81211;SDS011;70686;52.494;13.420;2023-07-31T03:39:30;7.00;;;4.60;;
81211;SDS011;70686;52.494;13.420;2023-07-31T03:41:56;7.05;;;4.43;;
81211;SDS011;70686;52.494;13.420;2023-07-31T03:44:22;9.23;;;4.60;;
81211;SDS011;70686;52.494;13.420;2023-07-31T03:46:48;8.68;;;4.88;;
81211;SDS011;70686;52.494;13.420;2023-07-31T03:49:14;11.18;;;5.15;;
81211;SDS011;70686;52.494;13.420;2023-07-31T03:51:40;8.68;;;5.30;;
81211;SDS011;70686;52.494;13.420;2023-07-31T03:54:06;9.15;;;4.47;;
81211;SDS011;70686;52.494;13.420;2023-07-31T03:56:33;9.18;;;4.38;;
81211;SDS011;70686;52.494;13.420;2023-07-31T03:58:59;7.50;;;4.95;;
81211;SDS011;70686;52.494;13.420;2023-07-31T04:01:25;7.85;;;4.88;;
81211;SDS011;70686;52.494;13.420;2023-07-31T04:03:51;7.13;;;4.70;;
81211;SDS011;70686;52.494;13.420;2023-07-31T04:06:17;5.35;;;4.30;;
81211;SDS011;70686;52.494;13.420;2023-07-31T04:08:46;7.88;;;4.68;;
81211;SDS011;70686;52.494;13.420;2023-07-31T04:11:12;8.05;;;4.68;;
81211;SDS011;70686;52.494;13.420;2023-07-31T04:13:38;9.57;;;4.70;;
81211;SDS011;70686;52.494;13.420;2023-07-31T04:16:04;8.05;;;4.50;;
81211;SDS011;70686;52.494;13.420;2023-07-31T04:18:30;7.57;;;4.70;;
81211;SDS011;70686;52.494;13.420;2023-07-31T04:20:57;7.15;;;4.38;;
81211;SDS011;70686;52.494;13.420;2023-07-31T04:23:24;6.55;;;4.80;;
81211;SDS011;70686;52.494;13.420;2023-07-31T04:25:50;6.18;;;4.50;;
81211;SDS011;70686;52.494;13.420;2023-07-31T04:28:16;5.97;;;4.05;;
81211;SDS011;70686;52.494;13.420;2023-07-31T04:30:42;8.15;;;4.25;;
81211;SDS011;70686;52.494;13.420;2023-07-31T04:33:08;8.35;;;4.68;;
81211;SDS011;70686;52.494;13.420;2023-07-31T04:35:34;7.00;;;4.30;;
81211;SDS011;70686;52.494;13.420;2023-07-31T04:38:00;8.13;;;4.40;;
81211;SDS011;70686;52.494;13.420;2023-07-31T04:40:26;6.57;;;4.38;;
81211;SDS011;70686;52.494;13.420;2023-07-31T04:42:52;8.40;;;4.75;;
81211;SDS011;70686;52.494;13.420;2023-07-31T04:45:18;6.35;;;4.80;;
81211;SDS011;70686;52.494;13.420;2023-07-31T04:47:44;7.55;;;4.85;;
81211;SDS011;70686;52.494;13.420;2023-07-31T04:50:10;7.15;;;4.53;;
81211;SDS011;70686;52.494;13.420;2023-07-31T04:52:36;7.95;;;4.88;;
81211;SDS011;70686;52.494;13.420;2023-07-31T04:55:02;7.10;;;4.30;;
81211;SDS011;70686;52.494;13.420;2023-07-31T04:57:28;8.75;;;5.10;;
81211;SDS011;70686;52.494;13.420;2023-07-31T04:59:54;9.65;;;5.40;;
81211;SDS011;70686;52.494;13.420;2023-07-31T05:02:20;6.80;;;4.50;;
81211;SDS011;70686;52.494;13.420;2023-07-31T05:04:46;8.73;;;4.90;;
81211;SDS011;70686;52.494;13.420;2023-07-31T05:07:12;9.60;;;4.65;;
81211;SDS011;70686;52.494;13.420;2023-07-31T05:09:38;6.93;;;4.80;;
81211;SDS011;70686;52.494;13.420;2023-07-31T05:12:05;12.18;;;5.30;;
81211;SDS011;70686;52.494;13.420;2023-07-31T05:14:31;6.03;;;4.43;;
81211;SDS011;70686;52.494;13.420;2023-07-31T05:16:57;8.38;;;4.65;;
81211;SDS011;70686;52.494;13.420;2023-07-31T05:19:23;7.65;;;4.57;;
81211;SDS011;70686;52.494;13.420;2023-07-31T05:21:49;7.72;;;4.50;;
81211;SDS011;70686;52.494;13.420;2023-07-31T05:24:15;6.78;;;4.30;;
81211;SDS011;70686;52.494;13.420;2023-07-31T05:26:41;6.97;;;4.45;;
81211;SDS011;70686;52.494;13.420;2023-07-31T05:29:07;7.30;;;4.43;;
81211;SDS011;70686;52.494;13.420;2023-07-31T05:31:33;7.55;;;3.90;;
81211;SDS011;70686;52.494;13.420;2023-07-31T05:33:59;7.55;;;3.90;;
81211;SDS011;70686;52.494;13.420;2023-07-31T05:36:25;4.50;;;3.90;;
81211;SDS011;70686;52.494;13.420;2023-07-31T05:38:51;6.68;;;4.10;;
81211;SDS011;70686;52.494;13.420;2023-07-31T05:41:17;7.28;;;3.90;;
81211;SDS011;70686;52.494;13.420;2023-07-31T05:43:43;7.07;;;4.13;;
81211;SDS011;70686;52.494;13.420;2023-07-31T05:46:09;4.95;;;3.65;;
81211;SDS011;70686;52.494;13.420;2023-07-31T05:48:36;8.43;;;3.92;;
81211;SDS011;70686;52.494;13.420;2023-07-31T05:51:02;8.70;;;3.90;;
81211;SDS011;70686;52.494;13.420;2023-07-31T05:53:28;6.32;;;3.75;;
81211;SDS011;70686;52.494;13.420;2023-07-31T05:55:54;8.57;;;4.13;;
81211;SDS011;70686;52.494;13.420;2023-07-31T05:58:21;9.95;;;4.22;;
81211;SDS011;70686;52.494;13.420;2023-07-31T06:00:47;7.20;;;4.05;;
81211;SDS011;70686;52.494;13.420;2023-07-31T06:03:13;6.07;;;3.90;;
81211;SDS011;70686;52.494;13.420;2023-07-31T06:05:39;7.45;;;3.92;;
81211;SDS011;70686;52.494;13.420;2023-07-31T06:08:05;7.68;;;3.88;;
81211;SDS011;70686;52.494;13.420;2023-07-31T06:10:31;7.40;;;3.80;;
81211;SDS011;70686;52.494;13.420;2023-07-31T06:12:57;5.78;;;3.75;;
81211;SDS011;70686;52.494;13.420;2023-07-31T06:15:23;7.32;;;4.00;;
81211;SDS011;70686;52.494;13.420;2023-07-31T06:17:49;5.55;;;3.50;;
81211;SDS011;70686;52.494;13.420;2023-07-31T06:20:15;8.35;;;3.58;;
81211;SDS011;70686;52.494;13.420;2023-07-31T06:22:41;5.95;;;3.30;;
81211;SDS011;70686;52.494;13.420;2023-07-31T06:25:08;6.53;;;3.97;;
81211;SDS011;70686;52.494;13.420;2023-07-31T06:27:34;5.82;;;3.50;;
81211;SDS011;70686;52.494;13.420;2023-07-31T06:30:00;9.80;;;4.00;;
81211;SDS011;70686;52.494;13.420;2023-07-31T06:32:26;5.85;;;3.40;;
81211;SDS011;70686;52.494;13.420;2023-07-31T06:34:52;7.13;;;3.38;;
81211;SDS011;70686;52.494;13.420;2023-07-31T06:37:19;7.53;;;3.67;;
81211;SDS011;70686;52.494;13.420;2023-07-31T06:39:45;4.38;;;3.00;;
81211;SDS011;70686;52.494;13.420;2023-07-31T06:42:11;5.18;;;3.28;;
81211;SDS011;70686;52.494;13.420;2023-07-31T06:44:37;4.97;;;3.20;;
81211;SDS011;70686;52.494;13.420;2023-07-31T06:47:03;3.15;;;2.28;;
81211;SDS011;70686;52.494;13.420;2023-07-31T06:49:29;6.13;;;3.38;;
81211;SDS011;70686;52.494;13.420;2023-07-31T06:51:55;8.27;;;3.38;;
81211;SDS011;70686;52.494;13.420;2023-07-31T06:54:21;4.75;;;3.15;;
81211;SDS011;70686;52.494;13.420;2023-07-31T06:56:47;9.75;;;3.40;;
81211;SDS011;70686;52.494;13.420;2023-07-31T06:59:13;5.53;;;3.22;;
81211;SDS011;70686;52.494;13.420;2023-07-31T07:01:42;6.05;;;3.47;;
81211;SDS011;70686;52.494;13.420;2023-07-31T07:04:08;5.05;;;3.58;;
81211;SDS011;70686;52.494;13.420;2023-07-31T07:06:34;7.30;;;3.33;;
81211;SDS011;70686;52.494;13.420;2023-07-31T07:09:00;7.07;;;3.08;;
81211;SDS011;70686;52.494;13.420;2023-07-31T07:11:29;6.13;;;3.17;;
81211;SDS011;70686;52.494;13.420;2023-07-31T07:14:02;8.85;;;4.18;;
81211;SDS011;70686;52.494;13.420;2023-07-31T07:16:28;6.18;;;3.40;;
81211;SDS011;70686;52.494;13.420;2023-07-31T07:18:57;6.78;;;3.22;;
81211;SDS011;70686;52.494;13.420;2023-07-31T07:21:23;6.10;;;3.65;;
81211;SDS011;70686;52.494;13.420;2023-07-31T07:23:49;6.82;;;3.47;;
81211;SDS011;70686;52.494;13.420;2023-07-31T07:26:16;6.25;;;3.03;;
81211;SDS011;70686;52.494;13.420;2023-07-31T07:28:42;8.02;;;3.13;;
81211;SDS011;70686;52.494;13.420;2023-07-31T07:31:08;6.85;;;3.60;;
81211;SDS011;70686;52.494;13.420;2023-07-31T07:33:34;4.72;;;3.55;;
81211;SDS011;70686;52.494;13.420;2023-07-31T07:36:00;5.78;;;3.35;;
81211;SDS011;70686;52.494;13.420;2023-07-31T07:38:27;6.65;;;3.55;;
81211;SDS011;70686;52.494;13.420;2023-07-31T07:40:53;4.28;;;3.03;;
81211;SDS011;70686;52.494;13.420;2023-07-31T07:43:19;7.63;;;3.47;;
81211;SDS011;70686;52.494;13.420;2023-07-31T07:45:45;6.45;;;3.33;;
81211;SDS011;70686;52.494;13.420;2023-07-31T07:48:11;4.22;;;3.03;;
81211;SDS011;70686;52.494;13.420;2023-07-31T07:50:38;7.30;;;3.63;;
81211;SDS011;70686;52.494;13.420;2023-07-31T07:53:06;5.47;;;3.08;;
81211;SDS011;70686;52.494;13.420;2023-07-31T07:55:32;5.38;;;3.30;;
81211;SDS011;70686;52.494;13.420;2023-07-31T07:57:58;5.13;;;3.13;;
81211;SDS011;70686;52.494;13.420;2023-07-31T08:00:24;6.00;;;3.28;;
81211;SDS011;70686;52.494;13.420;2023-07-31T08:02:50;5.43;;;2.75;;
81211;SDS011;70686;52.494;13.420;2023-07-31T08:05:16;5.05;;;3.28;;
81211;SDS011;70686;52.494;13.420;2023-07-31T08:07:42;4.90;;;3.15;;
81211;SDS011;70686;52.494;13.420;2023-07-31T08:10:08;6.18;;;3.60;;
81211;SDS011;70686;52.494;13.420;2023-07-31T08:12:35;6.88;;;3.42;;
81211;SDS011;70686;52.494;13.420;2023-07-31T08:15:01;4.13;;;2.90;;
81211;SDS011;70686;52.494;13.420;2023-07-31T08:17:27;4.40;;;3.10;;
81211;SDS011;70686;52.494;13.420;2023-07-31T08:19:53;4.15;;;3.13;;
81211;SDS011;70686;52.494;13.420;2023-07-31T08:22:19;4.90;;;3.30;;
81211;SDS011;70686;52.494;13.420;2023-07-31T08:24:45;9.82;;;3.00;;
81211;SDS011;70686;52.494;13.420;2023-07-31T08:27:11;3.17;;;2.53;;
81211;SDS011;70686;52.494;13.420;2023-07-31T08:29:37;5.38;;;3.10;;
81211;SDS011;70686;52.494;13.420;2023-07-31T08:32:03;6.15;;;3.20;;
81211;SDS011;70686;52.494;13.420;2023-07-31T08:34:30;5.18;;;3.33;;
81211;SDS011;70686;52.494;13.420;2023-07-31T08:36:56;8.63;;;4.20;;
81211;SDS011;70686;52.494;13.420;2023-07-31T08:39:22;6.53;;;3.30;;
81211;SDS011;70686;52.494;13.420;2023-07-31T08:41:48;4.85;;;3.30;;
81211;SDS011;70686;52.494;13.420;2023-07-31T08:44:15;5.88;;;3.58;;
81211;SDS011;70686;52.494;13.420;2023-07-31T08:46:41;6.65;;;3.90;;
81211;SDS011;70686;52.494;13.420;2023-07-31T08:49:08;4.82;;;3.40;;
81211;SDS011;70686;52.494;13.420;2023-07-31T08:51:35;4.60;;;2.95;;
81211;SDS011;70686;52.494;13.420;2023-07-31T08:54:02;5.30;;;3.85;;
81211;SDS011;70686;52.494;13.420;2023-07-31T08:56:34;4.05;;;3.10;;
81211;SDS011;70686;52.494;13.420;2023-07-31T08:59:01;6.15;;;3.22;;
81211;SDS011;70686;52.494;13.420;2023-07-31T09:01:29;5.53;;;3.22;;
81211;SDS011;70686;52.494;13.420;2023-07-31T09:03:56;3.65;;;3.00;;
81211;SDS011;70686;52.494;13.420;2023-07-31T09:06:23;7.05;;;3.58;;
81211;SDS011;70686;52.494;13.420;2023-07-31T09:08:51;9.07;;;4.00;;
81211;SDS011;70686;52.494;13.420;2023-07-31T09:11:17;5.45;;;2.92;;
81211;SDS011;70686;52.494;13.420;2023-07-31T09:13:44;4.75;;;3.00;;
81211;SDS011;70686;52.494;13.420;2023-07-31T09:16:11;5.20;;;3.22;;
81211;SDS011;70686;52.494;13.420;2023-07-31T09:18:52;4.25;;;3.42;;
81211;SDS011;70686;52.494;13.420;2023-07-31T09:21:19;3.08;;;2.33;;
81211;SDS011;70686;52.494;13.420;2023-07-31T09:23:46;3.83;;;2.60;;
81211;SDS011;70686;52.494;13.420;2023-07-31T09:26:46;3.78;;;2.40;;
81211;SDS011;70686;52.494;13.420;2023-07-31T09:29:05;5.15;;;2.33;;
81211;SDS011;70686;52.494;13.420;2023-07-31T09:31:33;3.85;;;2.30;;
81211;SDS011;70686;52.494;13.420;2023-07-31T09:34:03;4.47;;;2.65;;
81211;SDS011;70686;52.494;13.420;2023-07-31T09:36:29;2.50;;;2.10;;
81211;SDS011;70686;52.494;13.420;2023-07-31T09:38:58;2.50;;;1.92;;
81211;SDS011;70686;52.494;13.420;2023-07-31T09:41:27;2.88;;;1.75;;
81211;SDS011;70686;52.494;13.420;2023-07-31T09:43:53;2.67;;;1.77;;
81211;SDS011;70686;52.494;13.420;2023-07-31T09:46:20;2.55;;;1.73;;
81211;SDS011;70686;52.494;13.420;2023-07-31T09:48:49;2.67;;;1.95;;
81211;SDS011;70686;52.494;13.420;2023-07-31T09:51:15;3.13;;;1.90;;
81211;SDS011;70686;52.494;13.420;2023-07-31T09:53:41;1.90;;;1.75;;
81211;SDS011;70686;52.494;13.420;2023-07-31T09:56:07;2.70;;;1.75;;
81211;SDS011;70686;52.494;13.420;2023-07-31T09:58:34;3.90;;;1.90;;
81211;SDS011;70686;52.494;13.420;2023-07-31T10:01:01;2.50;;;1.80;;
81211;SDS011;70686;52.494;13.420;2023-07-31T10:03:27;3.55;;;2.30;;
81211;SDS011;70686;52.494;13.420;2023-07-31T10:05:55;3.83;;;2.17;;
81211;SDS011;70686;52.494;13.420;2023-07-31T10:08:23;3.63;;;2.38;;
81211;SDS011;70686;52.494;13.420;2023-07-31T10:10:52;4.65;;;3.00;;
81211;SDS011;70686;52.494;13.420;2023-07-31T10:13:18;5.75;;;3.03;;
81211;SDS011;70686;52.494;13.420;2023-07-31T10:15:47;5.28;;;2.70;;
81211;SDS011;70686;52.494;13.420;2023-07-31T10:18:13;4.47;;;3.15;;
81211;SDS011;70686;52.494;13.420;2023-07-31T10:20:39;5.82;;;2.97;;
81211;SDS011;70686;52.494;13.420;2023-07-31T10:23:05;8.40;;;4.05;;
81211;SDS011;70686;52.494;13.420;2023-07-31T10:25:32;5.20;;;3.25;;
81211;SDS011;70686;52.494;13.420;2023-07-31T10:27:58;6.63;;;3.92;;
81211;SDS011;70686;52.494;13.420;2023-07-31T10:30:26;6.68;;;3.90;;
81211;SDS011;70686;52.494;13.420;2023-07-31T10:32:52;5.88;;;3.95;;
81211;SDS011;70686;52.494;13.420;2023-07-31T10:35:19;6.95;;;4.20;;
81211;SDS011;70686;52.494;13.420;2023-07-31T10:37:47;8.95;;;3.45;;
81211;SDS011;70686;52.494;13.420;2023-07-31T10:40:17;6.93;;;4.13;;
81211;SDS011;70686;52.494;13.420;2023-07-31T10:42:47;7.07;;;4.40;;
81211;SDS011;70686;52.494;13.420;2023-07-31T10:45:14;7.32;;;4.00;;
81211;SDS011;70686;52.494;13.420;2023-07-31T10:47:51;8.20;;;4.43;;
81211;SDS011;70686;52.494;13.420;2023-07-31T10:50:23;8.93;;;4.05;;
81211;SDS011;70686;52.494;13.420;2023-07-31T10:52:50;6.38;;;3.65;;
81211;SDS011;70686;52.494;13.420;2023-07-31T10:57:49;6.28;;;4.00;;
81211;SDS011;70686;52.494;13.420;2023-07-31T11:00:23;5.60;;;3.80;;
81211;SDS011;70686;52.494;13.420;2023-07-31T11:03:00;6.32;;;3.58;;
81211;SDS011;70686;52.494;13.420;2023-07-31T11:05:43;7.72;;;3.65;;
81211;SDS011;70686;52.494;13.420;2023-07-31T11:10:41;6.17;;;3.43;;
81211;SDS011;70686;52.494;13.420;2023-07-31T11:13:16;8.85;;;3.75;;
81211;SDS011;70686;52.494;13.420;2023-07-31T11:15:43;7.47;;;4.03;;
81211;SDS011;70686;52.494;13.420;2023-07-31T11:18:09;8.02;;;3.80;;
81211;SDS011;70686;52.494;13.420;2023-07-31T11:20:36;6.57;;;3.80;;
81211;SDS011;70686;52.494;13.420;2023-07-31T11:23:03;7.68;;;4.00;;
81211;SDS011;70686;52.494;13.420;2023-07-31T11:25:33;5.25;;;3.33;;
81211;SDS011;70686;52.494;13.420;2023-07-31T11:28:05;6.68;;;3.53;;
81211;SDS011;70686;52.494;13.420;2023-07-31T11:30:32;5.30;;;3.60;;
81211;SDS011;70686;52.494;13.420;2023-07-31T11:32:59;6.07;;;3.55;;
81211;SDS011;70686;52.494;13.420;2023-07-31T11:35:25;6.97;;;3.80;;
81211;SDS011;70686;52.494;13.420;2023-07-31T11:37:51;7.10;;;3.55;;
81211;SDS011;70686;52.494;13.420;2023-07-31T11:40:17;5.95;;;3.42;;
81211;SDS011;70686;52.494;13.420;2023-07-31T11:42:44;6.13;;;3.38;;
81211;SDS011;70686;52.494;13.420;2023-07-31T11:45:10;5.50;;;4.00;;
81211;SDS011;70686;52.494;13.420;2023-07-31T11:47:37;5.30;;;3.78;;
81211;SDS011;70686;52.494;13.420;2023-07-31T11:50:04;5.85;;;3.40;;
81211;SDS011;70686;52.494;13.420;2023-07-31T11:52:32;5.35;;;3.45;;
81211;SDS011;70686;52.494;13.420;2023-07-31T11:54:59;5.88;;;3.33;;
81211;SDS011;70686;52.494;13.420;2023-07-31T11:57:27;6.95;;;3.70;;
81211;SDS011;70686;52.494;13.420;2023-07-31T11:59:53;5.65;;;3.25;;
81211;SDS011;70686;52.494;13.420;2023-07-31T12:02:19;5.30;;;3.30;;
81211;SDS011;70686;52.494;13.420;2023-07-31T12:04:46;5.35;;;3.15;;
81211;SDS011;70686;52.494;13.420;2023-07-31T12:07:12;6.13;;;3.40;;
81211;SDS011;70686;52.494;13.420;2023-07-31T12:09:39;6.03;;;3.28;;
81211;SDS011;70686;52.494;13.420;2023-07-31T12:12:19;6.47;;;3.45;;
81211;SDS011;70686;52.494;13.420;2023-07-31T12:14:46;5.78;;;3.65;;
81211;SDS011;70686;52.494;13.420;2023-07-31T12:17:15;6.43;;;3.05;;
81211;SDS011;70686;52.494;13.420;2023-07-31T12:19:41;5.22;;;3.58;;
81211;SDS011;70686;52.494;13.420;2023-07-31T12:22:13;6.35;;;3.42;;
81211;SDS011;70686;52.494;13.420;2023-07-31T12:24:40;6.53;;;3.35;;
81211;SDS011;70686;52.494;13.420;2023-07-31T12:27:13;6.45;;;3.22;;
81211;SDS011;70686;52.494;13.420;2023-07-31T12:29:40;5.95;;;3.35;;
81211;SDS011;70686;52.494;13.420;2023-07-31T12:32:22;5.00;;;3.03;;
81211;SDS011;70686;52.494;13.420;2023-07-31T12:34:50;5.97;;;3.55;;
81211;SDS011;70686;52.494;13.420;2023-07-31T12:37:16;3.67;;;2.85;;
81211;SDS011;70686;52.494;13.420;2023-07-31T12:39:42;5.10;;;3.30;;
81211;SDS011;70686;52.494;13.420;2023-07-31T12:42:08;8.02;;;3.50;;
81211;SDS011;70686;52.494;13.420;2023-07-31T12:44:34;4.90;;;3.17;;
81211;SDS011;70686;52.494;13.420;2023-07-31T12:47:00;5.18;;;2.97;;
81211;SDS011;70686;52.494;13.420;2023-07-31T12:49:26;6.05;;;3.13;;
81211;SDS011;70686;52.494;13.420;2023-07-31T12:51:52;6.25;;;3.53;;
81211;SDS011;70686;52.494;13.420;2023-07-31T12:54:19;5.03;;;2.58;;
81211;SDS011;70686;52.494;13.420;2023-07-31T12:56:44;6.03;;;3.13;;
81211;SDS011;70686;52.494;13.420;2023-07-31T12:59:10;4.78;;;3.20;;
81211;SDS011;70686;52.494;13.420;2023-07-31T13:01:37;3.78;;;2.53;;
81211;SDS011;70686;52.494;13.420;2023-07-31T13:04:16;3.50;;;2.28;;
81211;SDS011;70686;52.494;13.420;2023-07-31T13:06:42;4.60;;;2.50;;
81211;SDS011;70686;52.494;13.420;2023-07-31T13:09:08;4.65;;;2.80;;
81211;SDS011;70686;52.494;13.420;2023-07-31T13:11:35;4.47;;;1.98;;
81211;SDS011;70686;52.494;13.420;2023-07-31T13:14:01;3.85;;;2.83;;
81211;SDS011;70686;52.494;13.420;2023-07-31T13:16:27;4.10;;;2.53;;
81211;SDS011;70686;52.494;13.420;2023-07-31T13:18:53;4.60;;;2.83;;
81211;SDS011;70686;52.494;13.420;2023-07-31T13:21:19;4.75;;;2.92;;
81211;SDS011;70686;52.494;13.420;2023-07-31T13:23:47;5.13;;;3.00;;
81211;SDS011;70686;52.494;13.420;2023-07-31T13:26:13;4.82;;;2.92;;
81211;SDS011;70686;52.494;13.420;2023-07-31T13:28:39;7.32;;;3.03;;
81211;SDS011;70686;52.494;13.420;2023-07-31T13:31:14;7.82;;;3.15;;
81211;SDS011;70686;52.494;13.420;2023-07-31T13:33:40;6.70;;;2.97;;
81211;SDS011;70686;52.494;13.420;2023-07-31T13:36:06;7.63;;;2.78;;
81211;SDS011;70686;52.494;13.420;2023-07-31T13:38:32;4.65;;;2.88;;
81211;SDS011;70686;52.494;13.420;2023-07-31T13:40:58;4.43;;;2.92;;
81211;SDS011;70686;52.494;13.420;2023-07-31T13:43:24;5.70;;;3.40;;
81211;SDS011;70686;52.494;13.420;2023-07-31T13:45:51;4.38;;;3.25;;
81211;SDS011;70686;52.494;13.420;2023-07-31T13:48:17;6.28;;;2.85;;
81211;SDS011;70686;52.494;13.420;2023-07-31T13:50:43;4.20;;;2.83;;
81211;SDS011;70686;52.494;13.420;2023-07-31T13:53:09;5.38;;;3.13;;
81211;SDS011;70686;52.494;13.420;2023-07-31T13:55:35;7.60;;;3.30;;
81211;SDS011;70686;52.494;13.420;2023-07-31T13:58:03;5.72;;;3.53;;
81211;SDS011;70686;52.494;13.420;2023-07-31T14:00:47;5.57;;;3.28;;
81211;SDS011;70686;52.494;13.420;2023-07-31T14:03:15;6.07;;;3.30;;
81211;SDS011;70686;52.494;13.420;2023-07-31T14:05:41;5.85;;;3.60;;
81211;SDS011;70686;52.494;13.420;2023-07-31T14:08:10;6.13;;;3.35;;
81211;SDS011;70686;52.494;13.420;2023-07-31T14:10:36;6.00;;;3.50;;
81211;SDS011;70686;52.494;13.420;2023-07-31T14:13:02;5.72;;;3.45;;
81211;SDS011;70686;52.494;13.420;2023-07-31T14:15:28;6.32;;;3.55;;
81211;SDS011;70686;52.494;13.420;2023-07-31T14:17:54;6.30;;;3.42;;
81211;SDS011;70686;52.494;13.420;2023-07-31T14:20:20;8.38;;;3.55;;
81211;SDS011;70686;52.494;13.420;2023-07-31T14:22:46;6.43;;;3.95;;
81211;SDS011;70686;52.494;13.420;2023-07-31T14:25:12;4.95;;;3.22;;
81211;SDS011;70686;52.494;13.420;2023-07-31T14:27:38;5.30;;;3.45;;
81211;SDS011;70686;52.494;13.420;2023-07-31T14:30:04;6.78;;;3.90;;
81211;SDS011;70686;52.494;13.420;2023-07-31T14:32:30;5.32;;;3.25;;
81211;SDS011;70686;52.494;13.420;2023-07-31T14:34:56;5.68;;;3.20;;
81211;SDS011;70686;52.494;13.420;2023-07-31T14:37:25;4.65;;;3.25;;
81211;SDS011;70686;52.494;13.420;2023-07-31T14:39:52;5.10;;;3.17;;
81211;SDS011;70686;52.494;13.420;2023-07-31T14:42:18;6.53;;;3.30;;
81211;SDS011;70686;52.494;13.420;2023-07-31T14:44:44;7.38;;;3.38;;
81211;SDS011;70686;52.494;13.420;2023-07-31T14:47:12;5.10;;;3.00;;